sensor_id;sensor_type;location;lat;lon;timestamp;P1;durP1;ratioP1;P2;durP2;ratioP2
9940;SDS011;5009;50.656;7.188;2022-12-18T05:02:21;25.30;;;15.43;;
9940;SDS011;5009;50.656;7.188;2022-12-18T05:04:47;28.07;;;14.87;;
9940;SDS011;5009;50.656;7.188;2022-12-18T05:07:13;23.03;;;14.70;;
9940;SDS011;5009;50.656;7.188;2022-12-18T05:09:38;24.33;;;16.10;;
9940;SDS011;5009;50.656;7.188;2022-12-18T05:12:04;24.00;;;15.03;;
9940;SDS011;5009;50.656;7.188;2022-12-18T05:14:29;23.10;;;14.77;;
9940;SDS011;5009;50.656;7.188;2022-12-18T05:16:55;24.70;;;15.70;;
9940;SDS011;5009;50.656;7.188;2022-12-18T05:19:20;24.93;;;14.40;;
9940;SDS011;5009;50.656;7.188;2022-12-18T05:21:46;24.37;;;14.93;;
9940;SDS011;5009;50.656;7.188;2022-12-18T05:24:11;24.07;;;15.37;;
9940;SDS011;5009;50.656;7.188;2022-12-18T05:26:37;22.90;;;15.03;;
9940;SDS011;5009;50.656;7.188;2022-12-18T05:29:03;23.17;;;14.90;;
9940;SDS011;5009;50.656;7.188;2022-12-18T05:31:28;24.07;;;15.57;;
9940;SDS011;5009;50.656;7.188;2022-12-18T05:33:54;25.27;;;15.70;;
9940;SDS011;5009;50.656;7.188;2022-12-18T05:36:19;26.60;;;16.20;;
9940;SDS011;5009;50.656;7.188;2022-12-18T05:38:45;27.37;;;15.33;;
9940;SDS011;5009;50.656;7.188;2022-12-18T05:41:10;23.67;;;15.10;;
9940;SDS011;5009;50.656;7.188;2022-12-18T05:43:37;24.27;;;15.47;;
9940;SDS011;5009;50.656;7.188;2022-12-18T05:48:12;29.13;;;17.10;;
9940;SDS011;5009;50.656;7.188;2022-12-18T06:04:22;26.37;;;15.43;;
9940;SDS011;5009;50.656;7.188;2022-12-18T06:06:48;23.97;;;14.87;;
9940;SDS011;5009;50.656;7.188;2022-12-18T06:09:13;25.33;;;16.10;;
9940;SDS011;5009;50.656;7.188;2022-12-18T06:11:39;29.33;;;17.07;;
9940;SDS011;5009;50.656;7.188;2022-12-18T06:14:05;29.23;;;16.30;;
9940;SDS011;5009;50.656;7.188;2022-12-18T06:16:31;26.93;;;16.07;;
9940;SDS011;5009;50.656;7.188;2022-12-18T06:18:58;24.57;;;15.20;;
9940;SDS011;5009;50.656;7.188;2022-12-18T06:21:25;23.03;;;16.17;;
9940;SDS011;5009;50.656;7.188;2022-12-18T06:23:51;23.83;;;15.60;;
9940;SDS011;5009;50.656;7.188;2022-12-18T06:26:17;23.50;;;14.97;;
9940;SDS011;5009;50.656;7.188;2022-12-18T06:28:43;25.60;;;16.30;;
9940;SDS011;5009;50.656;7.188;2022-12-18T06:32:42;22.27;;;14.70;;
9940;SDS011;5009;50.656;7.188;2022-12-18T06:35:08;28.37;;;16.50;;
9940;SDS011;5009;50.656;7.188;2022-12-18T06:37:34;28.43;;;16.93;;
9940;SDS011;5009;50.656;7.188;2022-12-18T06:39:59;23.97;;;14.93;;
9940;SDS011;5009;50.656;7.188;2022-12-18T06:42:25;27.07;;;17.23;;
9940;SDS011;5009;50.656;7.188;2022-12-18T06:44:51;24.43;;;15.60;;
9940;SDS011;5009;50.656;7.188;2022-12-18T06:47:17;27.20;;;15.97;;
9940;SDS011;5009;50.656;7.188;2022-12-18T06:49:43;27.23;;;15.43;;
9940;SDS011;5009;50.656;7.188;2022-12-18T06:52:09;26.17;;;16.40;;
9940;SDS011;5009;50.656;7.188;2022-12-18T06:54:34;28.63;;;16.13;;
9940;SDS011;5009;50.656;7.188;2022-12-18T06:57:00;26.30;;;16.07;;
9940;SDS011;5009;50.656;7.188;2022-12-18T06:59:25;24.33;;;15.37;;
9940;SDS011;5009;50.656;7.188;2022-12-18T07:01:51;26.33;;;17.27;;
9940;SDS011;5009;50.656;7.188;2022-12-18T07:04:16;26.10;;;16.50;;
9940;SDS011;5009;50.656;7.188;2022-12-18T07:06:42;25.37;;;16.10;;
9940;SDS011;5009;50.656;7.188;2022-12-18T07:09:07;28.87;;;16.87;;
9940;SDS011;5009;50.656;7.188;2022-12-18T07:11:33;23.17;;;14.70;;
9940;SDS011;5009;50.656;7.188;2022-12-18T07:13:59;25.47;;;15.60;;
9940;SDS011;5009;50.656;7.188;2022-12-18T07:16:25;23.53;;;15.40;;
9940;SDS011;5009;50.656;7.188;2022-12-18T07:18:53;23.33;;;14.67;;
9940;SDS011;5009;50.656;7.188;2022-12-18T07:22:42;27.53;;;16.27;;
9940;SDS011;5009;50.656;7.188;2022-12-18T07:25:08;25.90;;;15.80;;
9940;SDS011;5009;50.656;7.188;2022-12-18T07:27:34;24.27;;;15.10;;
9940;SDS011;5009;50.656;7.188;2022-12-18T07:29:59;28.97;;;15.93;;
9940;SDS011;5009;50.656;7.188;2022-12-18T07:32:42;27.17;;;15.20;;
9940;SDS011;5009;50.656;7.188;2022-12-18T07:35:08;26.73;;;16.30;;
9940;SDS011;5009;50.656;7.188;2022-12-18T07:37:34;24.53;;;15.73;;
9940;SDS011;5009;50.656;7.188;2022-12-18T07:41:00;23.77;;;14.77;;
9940;SDS011;5009;50.656;7.188;2022-12-18T07:43:26;25.47;;;15.80;;
9940;SDS011;5009;50.656;7.188;2022-12-18T07:45:52;28.90;;;16.10;;
9940;SDS011;5009;50.656;7.188;2022-12-18T07:53:22;26.83;;;15.90;;
9940;SDS011;5009;50.656;7.188;2022-12-18T07:55:48;24.70;;;14.73;;
9940;SDS011;5009;50.656;7.188;2022-12-18T07:59:53;22.40;;;13.87;;
9940;SDS011;5009;50.656;7.188;2022-12-18T08:02:18;22.27;;;14.47;;
9940;SDS011;5009;50.656;7.188;2022-12-18T08:04:44;26.17;;;15.10;;
9940;SDS011;5009;50.656;7.188;2022-12-18T08:10:39;25.83;;;15.10;;
9940;SDS011;5009;50.656;7.188;2022-12-18T08:16:35;26.17;;;14.53;;
9940;SDS011;5009;50.656;7.188;2022-12-18T08:19:01;24.57;;;14.93;;
9940;SDS011;5009;50.656;7.188;2022-12-18T08:22:43;25.23;;;15.27;;
9940;SDS011;5009;50.656;7.188;2022-12-18T08:25:09;29.23;;;15.23;;
9940;SDS011;5009;50.656;7.188;2022-12-18T08:27:34;25.60;;;14.67;;
9940;SDS011;5009;50.656;7.188;2022-12-18T08:30:00;25.00;;;15.53;;
9940;SDS011;5009;50.656;7.188;2022-12-18T08:32:26;23.80;;;14.93;;
9940;SDS011;5009;50.656;7.188;2022-12-18T08:34:53;22.47;;;15.00;;
9940;SDS011;5009;50.656;7.188;2022-12-18T08:37:18;24.33;;;14.57;;
9940;SDS011;5009;50.656;7.188;2022-12-18T08:39:44;21.80;;;14.13;;
9940;SDS011;5009;50.656;7.188;2022-12-18T08:42:10;23.50;;;14.63;;
9940;SDS011;5009;50.656;7.188;2022-12-18T08:44:54;22.50;;;15.13;;
9940;SDS011;5009;50.656;7.188;2022-12-18T08:47:20;20.43;;;14.13;;
9940;SDS011;5009;50.656;7.188;2022-12-18T08:49:45;21.67;;;14.60;;
9940;SDS011;5009;50.656;7.188;2022-12-18T08:52:14;22.20;;;14.00;;
9940;SDS011;5009;50.656;7.188;2022-12-18T08:54:39;27.80;;;15.57;;
9940;SDS011;5009;50.656;7.188;2022-12-18T08:57:05;21.57;;;14.60;;
9940;SDS011;5009;50.656;7.188;2022-12-18T08:59:31;22.50;;;14.30;;
9940;SDS011;5009;50.656;7.188;2022-12-18T09:04:13;23.03;;;14.70;;
9940;SDS011;5009;50.656;7.188;2022-12-18T09:06:53;22.97;;;14.30;;
9940;SDS011;5009;50.656;7.188;2022-12-18T09:09:18;23.83;;;14.67;;
9940;SDS011;5009;50.656;7.188;2022-12-18T09:11:44;22.57;;;15.20;;
9940;SDS011;5009;50.656;7.188;2022-12-18T09:14:10;22.90;;;14.83;;
9940;SDS011;5009;50.656;7.188;2022-12-18T09:16:36;23.17;;;13.93;;
9940;SDS011;5009;50.656;7.188;2022-12-18T09:19:02;22.60;;;14.20;;
9940;SDS011;5009;50.656;7.188;2022-12-18T09:21:30;20.53;;;13.10;;
9940;SDS011;5009;50.656;7.188;2022-12-18T09:23:57;21.07;;;14.27;;
9940;SDS011;5009;50.656;7.188;2022-12-18T09:26:24;19.73;;;14.03;;
9940;SDS011;5009;50.656;7.188;2022-12-18T09:28:50;22.27;;;15.50;;
9940;SDS011;5009;50.656;7.188;2022-12-18T09:31:16;24.73;;;14.40;;
9940;SDS011;5009;50.656;7.188;2022-12-18T09:33:44;20.50;;;13.80;;
9940;SDS011;5009;50.656;7.188;2022-12-18T09:36:10;21.13;;;14.13;;
9940;SDS011;5009;50.656;7.188;2022-12-18T09:39:00;23.93;;;14.83;;
9940;SDS011;5009;50.656;7.188;2022-12-18T09:49:45;22.83;;;14.93;;
9940;SDS011;5009;50.656;7.188;2022-12-18T09:52:19;26.63;;;14.70;;
9940;SDS011;5009;50.656;7.188;2022-12-18T09:54:51;22.77;;;14.63;;
9940;SDS011;5009;50.656;7.188;2022-12-18T09:58:40;22.13;;;13.90;;
9940;SDS011;5009;50.656;7.188;2022-12-18T10:01:11;21.53;;;14.67;;
9940;SDS011;5009;50.656;7.188;2022-12-18T10:03:41;22.07;;;14.73;;
9940;SDS011;5009;50.656;7.188;2022-12-18T10:14:09;19.70;;;13.70;;
9940;SDS011;5009;50.656;7.188;2022-12-18T10:19:29;22.13;;;14.00;;
9940;SDS011;5009;50.656;7.188;2022-12-18T10:24:56;20.47;;;14.33;;
9940;SDS011;5009;50.656;7.188;2022-12-18T10:27:44;23.83;;;16.03;;
9940;SDS011;5009;50.656;7.188;2022-12-18T10:32:43;21.47;;;15.43;;
9940;SDS011;5009;50.656;7.188;2022-12-18T10:35:22;21.43;;;14.57;;
9940;SDS011;5009;50.656;7.188;2022-12-18T10:38:07;21.67;;;14.50;;
9940;SDS011;5009;50.656;7.188;2022-12-18T10:43:42;23.40;;;15.37;;
9940;SDS011;5009;50.656;7.188;2022-12-18T10:48:34;24.37;;;15.30;;
9940;SDS011;5009;50.656;7.188;2022-12-18T10:51:03;21.90;;;15.07;;
9940;SDS011;5009;50.656;7.188;2022-12-18T10:53:31;23.23;;;15.10;;
9940;SDS011;5009;50.656;7.188;2022-12-18T10:55:59;21.37;;;14.53;;
9940;SDS011;5009;50.656;7.188;2022-12-18T10:58:26;22.20;;;14.83;;
9940;SDS011;5009;50.656;7.188;2022-12-18T11:01:17;23.47;;;15.73;;
9940;SDS011;5009;50.656;7.188;2022-12-18T11:04:31;25.80;;;16.40;;
9940;SDS011;5009;50.656;7.188;2022-12-18T11:06:35;20.90;;;15.53;;
9940;SDS011;5009;50.656;7.188;2022-12-18T11:09:27;23.47;;;15.00;;
9940;SDS011;5009;50.656;7.188;2022-12-18T11:11:57;22.40;;;15.50;;
9940;SDS011;5009;50.656;7.188;2022-12-18T11:14:34;20.10;;;14.63;;
9940;SDS011;5009;50.656;7.188;2022-12-18T11:17:20;19.67;;;14.47;;
9940;SDS011;5009;50.656;7.188;2022-12-18T11:19:59;20.77;;;15.50;;
9940;SDS011;5009;50.656;7.188;2022-12-18T11:22:43;26.97;;;17.00;;
9940;SDS011;5009;50.656;7.188;2022-12-18T11:25:23;21.83;;;15.57;;
9940;SDS011;5009;50.656;7.188;2022-12-18T11:27:53;23.80;;;16.53;;
9940;SDS011;5009;50.656;7.188;2022-12-18T11:31:42;22.87;;;16.47;;
9940;SDS011;5009;50.656;7.188;2022-12-18T11:34:16;21.20;;;15.80;;
9940;SDS011;5009;50.656;7.188;2022-12-18T11:36:55;23.47;;;15.77;;
9940;SDS011;5009;50.656;7.188;2022-12-18T11:39:29;23.77;;;16.67;;
9940;SDS011;5009;50.656;7.188;2022-12-18T11:44:47;24.60;;;16.30;;
9940;SDS011;5009;50.656;7.188;2022-12-18T11:47:15;25.37;;;16.87;;
9940;SDS011;5009;50.656;7.188;2022-12-18T11:49:43;23.47;;;16.27;;
9940;SDS011;5009;50.656;7.188;2022-12-18T11:52:20;24.20;;;16.87;;
9940;SDS011;5009;50.656;7.188;2022-12-18T11:54:58;23.03;;;17.17;;
9940;SDS011;5009;50.656;7.188;2022-12-18T12:00:18;24.83;;;17.17;;
9940;SDS011;5009;50.656;7.188;2022-12-18T12:09:04;23.73;;;16.50;;
9940;SDS011;5009;50.656;7.188;2022-12-18T12:20:18;25.10;;;17.70;;
9940;SDS011;5009;50.656;7.188;2022-12-18T12:22:54;24.23;;;16.90;;
9940;SDS011;5009;50.656;7.188;2022-12-18T12:25:49;25.00;;;17.33;;
9940;SDS011;5009;50.656;7.188;2022-12-18T12:41:04;26.23;;;16.87;;
9940;SDS011;5009;50.656;7.188;2022-12-18T12:43:53;27.03;;;17.90;;
9940;SDS011;5009;50.656;7.188;2022-12-18T12:46:23;24.00;;;16.53;;
9940;SDS011;5009;50.656;7.188;2022-12-18T12:51:22;25.30;;;16.70;;
9940;SDS011;5009;50.656;7.188;2022-12-18T12:53:54;26.23;;;17.53;;
9940;SDS011;5009;50.656;7.188;2022-12-18T12:56:22;24.77;;;17.40;;
9940;SDS011;5009;50.656;7.188;2022-12-18T13:01:36;26.33;;;18.37;;
9940;SDS011;5009;50.656;7.188;2022-12-18T13:07:00;25.90;;;17.70;;
9940;SDS011;5009;50.656;7.188;2022-12-18T13:09:29;24.60;;;17.33;;
9940;SDS011;5009;50.656;7.188;2022-12-18T13:12:01;25.93;;;18.77;;
9940;SDS011;5009;50.656;7.188;2022-12-18T13:14:46;27.27;;;18.87;;
9940;SDS011;5009;50.656;7.188;2022-12-18T13:19:49;26.97;;;17.90;;
9940;SDS011;5009;50.656;7.188;2022-12-18T13:22:21;26.37;;;18.27;;
9940;SDS011;5009;50.656;7.188;2022-12-18T13:24:48;24.03;;;17.83;;
9940;SDS011;5009;50.656;7.188;2022-12-18T13:38:21;26.40;;;18.03;;
9940;SDS011;5009;50.656;7.188;2022-12-18T13:42:43;24.87;;;18.00;;
9940;SDS011;5009;50.656;7.188;2022-12-18T13:45:39;26.93;;;18.23;;
9940;SDS011;5009;50.656;7.188;2022-12-18T13:48:17;28.50;;;19.97;;
9940;SDS011;5009;50.656;7.188;2022-12-18T13:50:49;25.77;;;18.63;;
9940;SDS011;5009;50.656;7.188;2022-12-18T13:53:32;27.23;;;18.50;;
9940;SDS011;5009;50.656;7.188;2022-12-18T13:56:01;26.53;;;18.83;;
9940;SDS011;5009;50.656;7.188;2022-12-18T13:58:28;28.87;;;19.50;;
9940;SDS011;5009;50.656;7.188;2022-12-18T14:00:53;27.20;;;18.67;;
9940;SDS011;5009;50.656;7.188;2022-12-18T14:03:21;26.20;;;18.93;;
9940;SDS011;5009;50.656;7.188;2022-12-18T14:06:01;27.50;;;19.23;;
9940;SDS011;5009;50.656;7.188;2022-12-18T14:08:33;27.37;;;19.53;;
9940;SDS011;5009;50.656;7.188;2022-12-18T14:11:02;25.37;;;19.07;;
9940;SDS011;5009;50.656;7.188;2022-12-18T14:13:31;28.90;;;19.40;;
9940;SDS011;5009;50.656;7.188;2022-12-18T14:16:03;28.67;;;19.70;;
9940;SDS011;5009;50.656;7.188;2022-12-18T14:21:18;27.23;;;19.10;;
9940;SDS011;5009;50.656;7.188;2022-12-18T14:24:06;30.43;;;19.20;;
9940;SDS011;5009;50.656;7.188;2022-12-18T14:26:32;28.87;;;19.07;;
9940;SDS011;5009;50.656;7.188;2022-12-18T14:28:59;27.67;;;19.77;;
9940;SDS011;5009;50.656;7.188;2022-12-18T14:31:27;30.83;;;19.43;;
9940;SDS011;5009;50.656;7.188;2022-12-18T14:33:54;28.73;;;19.37;;
9940;SDS011;5009;50.656;7.188;2022-12-18T14:36:22;25.80;;;18.97;;
9940;SDS011;5009;50.656;7.188;2022-12-18T14:38:53;24.97;;;17.57;;
9940;SDS011;5009;50.656;7.188;2022-12-18T14:41:20;29.93;;;20.00;;
9940;SDS011;5009;50.656;7.188;2022-12-18T14:43:48;28.63;;;19.07;;
9940;SDS011;5009;50.656;7.188;2022-12-18T14:46:25;30.13;;;19.13;;
9940;SDS011;5009;50.656;7.188;2022-12-18T14:51:53;27.37;;;18.43;;
9940;SDS011;5009;50.656;7.188;2022-12-18T14:54:21;27.57;;;18.97;;
9940;SDS011;5009;50.656;7.188;2022-12-18T14:56:48;25.83;;;18.23;;
9940;SDS011;5009;50.656;7.188;2022-12-18T14:59:18;28.97;;;19.47;;
9940;SDS011;5009;50.656;7.188;2022-12-18T15:07:04;27.37;;;17.83;;
9940;SDS011;5009;50.656;7.188;2022-12-18T15:18:02;27.13;;;19.07;;
9940;SDS011;5009;50.656;7.188;2022-12-18T15:26:12;25.37;;;18.13;;
9940;SDS011;5009;50.656;7.188;2022-12-18T15:28:49;28.47;;;19.70;;
9940;SDS011;5009;50.656;7.188;2022-12-18T15:36:19;28.93;;;19.87;;
9940;SDS011;5009;50.656;7.188;2022-12-18T15:38:46;28.43;;;20.03;;
9940;SDS011;5009;50.656;7.188;2022-12-18T15:42:44;30.30;;;19.87;;
9940;SDS011;5009;50.656;7.188;2022-12-18T15:45:29;31.73;;;20.97;;
9940;SDS011;5009;50.656;7.188;2022-12-18T15:47:55;30.30;;;20.87;;
9940;SDS011;5009;50.656;7.188;2022-12-18T15:50:20;30.97;;;20.17;;
9940;SDS011;5009;50.656;7.188;2022-12-18T15:52:47;31.93;;;21.27;;
9940;SDS011;5009;50.656;7.188;2022-12-18T15:55:16;29.97;;;20.93;;
9940;SDS011;5009;50.656;7.188;2022-12-18T15:58:02;32.37;;;21.17;;
9940;SDS011;5009;50.656;7.188;2022-12-18T16:00:28;30.73;;;21.90;;
9940;SDS011;5009;50.656;7.188;2022-12-18T16:02:54;32.87;;;21.73;;
9940;SDS011;5009;50.656;7.188;2022-12-18T16:05:20;29.80;;;20.90;;
9940;SDS011;5009;50.656;7.188;2022-12-18T16:07:47;31.67;;;22.20;;
9940;SDS011;5009;50.656;7.188;2022-12-18T16:10:13;32.10;;;22.70;;
9940;SDS011;5009;50.656;7.188;2022-12-18T16:12:39;29.63;;;21.00;;
9940;SDS011;5009;50.656;7.188;2022-12-18T16:15:05;32.03;;;22.10;;
9940;SDS011;5009;50.656;7.188;2022-12-18T16:17:31;33.70;;;22.03;;
9940;SDS011;5009;50.656;7.188;2022-12-18T16:19:57;33.80;;;23.77;;
9940;SDS011;5009;50.656;7.188;2022-12-18T16:22:44;33.00;;;22.43;;
9940;SDS011;5009;50.656;7.188;2022-12-18T16:25:24;36.43;;;24.50;;
9940;SDS011;5009;50.656;7.188;2022-12-18T16:27:52;33.93;;;22.37;;
9940;SDS011;5009;50.656;7.188;2022-12-18T16:30:21;32.70;;;21.30;;
9940;SDS011;5009;50.656;7.188;2022-12-18T16:32:55;31.87;;;22.27;;
9940;SDS011;5009;50.656;7.188;2022-12-18T16:35:21;34.60;;;23.37;;
9940;SDS011;5009;50.656;7.188;2022-12-18T16:37:47;33.10;;;21.57;;
9940;SDS011;5009;50.656;7.188;2022-12-18T16:40:13;32.27;;;22.47;;
9940;SDS011;5009;50.656;7.188;2022-12-18T16:42:40;36.13;;;22.40;;
9940;SDS011;5009;50.656;7.188;2022-12-18T16:45:08;35.53;;;23.70;;
9940;SDS011;5009;50.656;7.188;2022-12-18T16:47:35;34.80;;;23.20;;
9940;SDS011;5009;50.656;7.188;2022-12-18T16:50:01;33.70;;;22.20;;
9940;SDS011;5009;50.656;7.188;2022-12-18T16:52:44;35.60;;;23.60;;
9940;SDS011;5009;50.656;7.188;2022-12-18T16:55:10;36.13;;;22.90;;
9940;SDS011;5009;50.656;7.188;2022-12-18T16:57:35;41.17;;;24.47;;
9940;SDS011;5009;50.656;7.188;2022-12-18T17:00:01;36.03;;;23.27;;
9940;SDS011;5009;50.656;7.188;2022-12-18T17:02:27;39.53;;;25.23;;
9940;SDS011;5009;50.656;7.188;2022-12-18T17:04:54;37.97;;;23.60;;
9940;SDS011;5009;50.656;7.188;2022-12-18T17:07:20;35.87;;;23.53;;
9940;SDS011;5009;50.656;7.188;2022-12-18T17:09:46;39.77;;;25.47;;
9940;SDS011;5009;50.656;7.188;2022-12-18T17:12:11;37.00;;;24.90;;
9940;SDS011;5009;50.656;7.188;2022-12-18T17:14:37;37.13;;;25.43;;
9940;SDS011;5009;50.656;7.188;2022-12-18T17:17:03;34.47;;;21.93;;
9940;SDS011;5009;50.656;7.188;2022-12-18T17:19:28;35.97;;;24.93;;
9940;SDS011;5009;50.656;7.188;2022-12-18T17:21:54;36.47;;;25.13;;
9940;SDS011;5009;50.656;7.188;2022-12-18T17:24:20;38.30;;;23.40;;
9940;SDS011;5009;50.656;7.188;2022-12-18T17:26:46;37.93;;;24.27;;
9940;SDS011;5009;50.656;7.188;2022-12-18T17:29:13;37.90;;;23.90;;
9940;SDS011;5009;50.656;7.188;2022-12-18T17:31:40;36.57;;;23.67;;
9940;SDS011;5009;50.656;7.188;2022-12-18T17:34:07;37.10;;;24.83;;
9940;SDS011;5009;50.656;7.188;2022-12-18T17:36:34;39.63;;;26.37;;
9940;SDS011;5009;50.656;7.188;2022-12-18T17:39:00;37.43;;;25.07;;
9940;SDS011;5009;50.656;7.188;2022-12-18T17:42:44;37.70;;;24.67;;
9940;SDS011;5009;50.656;7.188;2022-12-18T17:45:10;41.30;;;25.97;;
9940;SDS011;5009;50.656;7.188;2022-12-18T17:47:35;38.67;;;25.10;;
9940;SDS011;5009;50.656;7.188;2022-12-18T17:50:01;38.10;;;23.70;;
9940;SDS011;5009;50.656;7.188;2022-12-18T17:52:44;38.60;;;24.73;;
9940;SDS011;5009;50.656;7.188;2022-12-18T17:55:10;35.60;;;22.90;;
9940;SDS011;5009;50.656;7.188;2022-12-18T17:57:36;41.23;;;26.10;;
9940;SDS011;5009;50.656;7.188;2022-12-18T18:00:04;38.40;;;25.80;;
9940;SDS011;5009;50.656;7.188;2022-12-18T18:02:30;37.77;;;23.90;;
9940;SDS011;5009;50.656;7.188;2022-12-18T18:04:56;39.93;;;25.37;;
9940;SDS011;5009;50.656;7.188;2022-12-18T18:07:22;42.43;;;25.73;;
9940;SDS011;5009;50.656;7.188;2022-12-18T18:09:47;36.87;;;23.83;;
9940;SDS011;5009;50.656;7.188;2022-12-18T18:12:13;40.67;;;26.37;;
9940;SDS011;5009;50.656;7.188;2022-12-18T18:14:57;38.93;;;23.90;;
9940;SDS011;5009;50.656;7.188;2022-12-18T18:17:23;39.10;;;24.63;;
9940;SDS011;5009;50.656;7.188;2022-12-18T18:19:48;34.90;;;23.63;;
9940;SDS011;5009;50.656;7.188;2022-12-18T18:22:14;41.07;;;26.00;;
9940;SDS011;5009;50.656;7.188;2022-12-18T18:24:39;37.10;;;23.93;;
9940;SDS011;5009;50.656;7.188;2022-12-18T18:27:07;36.27;;;23.53;;
9940;SDS011;5009;50.656;7.188;2022-12-18T18:29:33;40.17;;;24.67;;
9940;SDS011;5009;50.656;7.188;2022-12-18T18:31:58;40.27;;;25.57;;
9940;SDS011;5009;50.656;7.188;2022-12-18T18:34:28;40.70;;;26.17;;
9940;SDS011;5009;50.656;7.188;2022-12-18T18:36:54;39.07;;;24.80;;
9940;SDS011;5009;50.656;7.188;2022-12-18T18:39:20;41.47;;;26.00;;
9940;SDS011;5009;50.656;7.188;2022-12-18T18:41:46;41.70;;;25.90;;
9940;SDS011;5009;50.656;7.188;2022-12-18T18:44:12;38.90;;;25.73;;
9940;SDS011;5009;50.656;7.188;2022-12-18T18:46:38;39.07;;;25.83;;
9940;SDS011;5009;50.656;7.188;2022-12-18T18:49:03;39.43;;;25.20;;
9940;SDS011;5009;50.656;7.188;2022-12-18T18:51:29;41.60;;;25.27;;
9940;SDS011;5009;50.656;7.188;2022-12-18T18:53:55;37.97;;;25.53;;
9940;SDS011;5009;50.656;7.188;2022-12-18T18:56:22;39.53;;;24.03;;
9940;SDS011;5009;50.656;7.188;2022-12-18T18:58:51;42.33;;;25.50;;
9940;SDS011;5009;50.656;7.188;2022-12-18T19:02:44;38.30;;;24.10;;
9940;SDS011;5009;50.656;7.188;2022-12-18T19:05:10;42.63;;;23.60;;
9940;SDS011;5009;50.656;7.188;2022-12-18T19:07:35;38.27;;;24.50;;
9940;SDS011;5009;50.656;7.188;2022-12-18T19:10:01;35.17;;;24.43;;
9940;SDS011;5009;50.656;7.188;2022-12-18T19:12:27;41.70;;;24.50;;
9940;SDS011;5009;50.656;7.188;2022-12-18T19:15:11;40.77;;;24.73;;
9940;SDS011;5009;50.656;7.188;2022-12-18T19:17:37;40.70;;;24.13;;
9940;SDS011;5009;50.656;7.188;2022-12-18T19:20:03;38.60;;;23.80;;
9940;SDS011;5009;50.656;7.188;2022-12-18T19:22:44;39.77;;;25.27;;
9940;SDS011;5009;50.656;7.188;2022-12-18T19:25:10;41.23;;;24.63;;
9940;SDS011;5009;50.656;7.188;2022-12-18T19:27:36;38.17;;;25.53;;
9940;SDS011;5009;50.656;7.188;2022-12-18T19:30:04;40.70;;;26.63;;
9940;SDS011;5009;50.656;7.188;2022-12-18T19:32:30;41.37;;;25.83;;
9940;SDS011;5009;50.656;7.188;2022-12-18T19:34:55;38.13;;;25.67;;
9940;SDS011;5009;50.656;7.188;2022-12-18T19:37:21;36.17;;;24.73;;
9940;SDS011;5009;50.656;7.188;2022-12-18T19:39:47;46.33;;;25.67;;
9940;SDS011;5009;50.656;7.188;2022-12-18T19:42:12;42.83;;;26.00;;
9940;SDS011;5009;50.656;7.188;2022-12-18T19:44:38;37.87;;;25.50;;
9940;SDS011;5009;50.656;7.188;2022-12-18T19:50:15;37.10;;;24.27;;
9940;SDS011;5009;50.656;7.188;2022-12-18T19:52:41;37.70;;;25.13;;
9940;SDS011;5009;50.656;7.188;2022-12-18T19:55:07;38.17;;;24.47;;
9940;SDS011;5009;50.656;7.188;2022-12-18T19:57:32;42.50;;;25.77;;
9940;SDS011;5009;50.656;7.188;2022-12-18T19:59:58;38.83;;;24.87;;
9940;SDS011;5009;50.656;7.188;2022-12-18T20:02:24;43.93;;;26.37;;
9940;SDS011;5009;50.656;7.188;2022-12-18T20:04:49;41.57;;;26.00;;
9940;SDS011;5009;50.656;7.188;2022-12-18T20:07:15;40.07;;;24.87;;
9940;SDS011;5009;50.656;7.188;2022-12-18T20:09:40;40.97;;;25.43;;
9940;SDS011;5009;50.656;7.188;2022-12-18T20:12:06;40.07;;;25.67;;
9940;SDS011;5009;50.656;7.188;2022-12-18T20:14:31;38.83;;;25.03;;
9940;SDS011;5009;50.656;7.188;2022-12-18T20:16:57;42.27;;;26.00;;
9940;SDS011;5009;50.656;7.188;2022-12-18T20:19:23;43.67;;;25.07;;
9940;SDS011;5009;50.656;7.188;2022-12-18T20:21:48;39.97;;;24.53;;
9940;SDS011;5009;50.656;7.188;2022-12-18T20:24:14;40.20;;;25.93;;
9940;SDS011;5009;50.656;7.188;2022-12-18T20:26:39;39.47;;;24.80;;
9940;SDS011;5009;50.656;7.188;2022-12-18T20:29:05;36.53;;;23.43;;
9940;SDS011;5009;50.656;7.188;2022-12-18T20:32:45;40.67;;;24.73;;
9940;SDS011;5009;50.656;7.188;2022-12-18T20:35:10;37.60;;;24.47;;
9940;SDS011;5009;50.656;7.188;2022-12-18T20:37:36;41.13;;;25.17;;
9940;SDS011;5009;50.656;7.188;2022-12-18T20:40:02;40.03;;;25.50;;
9940;SDS011;5009;50.656;7.188;2022-12-18T20:42:27;37.50;;;24.13;;
9940;SDS011;5009;50.656;7.188;2022-12-18T20:44:53;41.07;;;25.57;;
9940;SDS011;5009;50.656;7.188;2022-12-18T20:47:19;41.37;;;25.50;;
9940;SDS011;5009;50.656;7.188;2022-12-18T20:49:44;44.00;;;26.53;;
9940;SDS011;5009;50.656;7.188;2022-12-18T20:52:46;39.50;;;25.27;;
9940;SDS011;5009;50.656;7.188;2022-12-18T20:55:11;40.63;;;25.90;;
9940;SDS011;5009;50.656;7.188;2022-12-18T20:57:37;38.63;;;26.23;;
9940;SDS011;5009;50.656;7.188;2022-12-18T21:00:03;46.90;;;26.50;;
9940;SDS011;5009;50.656;7.188;2022-12-18T21:02:29;40.33;;;26.00;;
9940;SDS011;5009;50.656;7.188;2022-12-18T21:04:55;40.57;;;25.03;;
9940;SDS011;5009;50.656;7.188;2022-12-18T21:07:21;38.07;;;25.10;;
9940;SDS011;5009;50.656;7.188;2022-12-18T21:09:46;41.13;;;24.77;;
9940;SDS011;5009;50.656;7.188;2022-12-18T21:12:13;39.50;;;25.80;;
9940;SDS011;5009;50.656;7.188;2022-12-18T21:15:07;38.20;;;25.50;;
9940;SDS011;5009;50.656;7.188;2022-12-18T21:17:33;40.50;;;26.43;;
9940;SDS011;5009;50.656;7.188;2022-12-18T21:19:59;43.57;;;25.77;;
9940;SDS011;5009;50.656;7.188;2022-12-18T21:22:25;40.83;;;26.30;;
9940;SDS011;5009;50.656;7.188;2022-12-18T21:24:51;40.87;;;25.73;;
9940;SDS011;5009;50.656;7.188;2022-12-18T21:27:17;38.60;;;25.30;;
9940;SDS011;5009;50.656;7.188;2022-12-18T21:29:43;39.10;;;24.87;;
9940;SDS011;5009;50.656;7.188;2022-12-18T21:32:09;43.93;;;25.90;;
9940;SDS011;5009;50.656;7.188;2022-12-18T21:34:35;38.33;;;25.63;;
9940;SDS011;5009;50.656;7.188;2022-12-18T21:37:01;39.27;;;24.33;;
9940;SDS011;5009;50.656;7.188;2022-12-18T21:39:27;41.13;;;26.13;;
9940;SDS011;5009;50.656;7.188;2022-12-18T21:41:54;40.27;;;25.40;;
9940;SDS011;5009;50.656;7.188;2022-12-18T21:44:38;41.00;;;26.27;;
9940;SDS011;5009;50.656;7.188;2022-12-18T21:47:04;40.67;;;25.40;;
9940;SDS011;5009;50.656;7.188;2022-12-18T21:49:31;39.70;;;26.17;;
9940;SDS011;5009;50.656;7.188;2022-12-18T21:52:45;38.07;;;24.57;;
9940;SDS011;5009;50.656;7.188;2022-12-18T21:55:10;41.70;;;27.23;;
9940;SDS011;5009;50.656;7.188;2022-12-18T21:57:37;43.83;;;26.23;;
9940;SDS011;5009;50.656;7.188;2022-12-18T22:00:03;50.80;;;26.53;;
